Soaring Guidance
Issued by NWS Reno, NV

Home | Current Version | Previous Version | Text Only | Print | Product List | Glossary On
Versions: 1 2 3 4 5 6 7 8 9 10 11 12 13
188
UXUS97 KREV 131448
SRGREV

SOARING FORECAST
NATIONAL WEATHER SERVICE - RENO NV
700 AM PST SAT FEB 13 2016

THIS SOARING FORECAST IS FOR THE EASTERN SIERRA AND WESTERN NEVADA
WITH SPECIFIC INDICES FOR THE GREATER RENO AREA.

THIS FORECAST IS PREPARED DAILY BY 700 AM AND IS NOT UPDATED.

FOR CURRENT FLIGHT CONDITIONS...FORECASTS...AND ADVISORIES...ACCESS
YOUR LOCAL BRIEFING OUTLET OR FLIGHT SERVICE STATION.

*******************************************************************
FORECASTED LOCAL INDICES FOR RENO:        TODAY     YESTERDAY
FORECASTED MAX TEMP AT RENO (DEG F).....     63          66
FORECASTED TRIGGER TEMPERATURE (DEG F)..     63          63
   EXCEEDED YESTERDAY BY 1455 PM PST
FORECASTED MAXIMUM ALTITUDE (FT MSL)....   8500        8500
FORECASTED SOARING INDEX (FPM)..........    285         285
FORECASTED K-INDEX.........VALID 18Z....    -10          -4
FORECASTED K-INDEX.........VALID 00Z....     -5           1
FORECASTED LIFTED INDEX....VALID 18Z....      9           9
FORECASTED LIFTED INDEX....VALID 00Z....      6           7

AFTERNOON WINDS ALOFT FORECAST
MSL (FT) WIND/TEMP
9000  3011/+03
10000 3013/+01
12000 3016/-03
14000 3118/-08
16000 3220/-13
18000 3426/-18
24000 3235/-30
30000 3576/-46
34000 3555/-56
39000 3151/-60

SLIDE MOUNTAIN DATA:
     DATE       TIME     TEMP  DEWPT   RH         WIND (MPH)
                        (F)   (F)           | DIR  SPEED GUST
2016-02-13    05:50      33     0      9    | 348    7   12
2016-02-13    05:30      33     0      8    | 342   10   17
2016-02-13    05:20      33     0      8    | 337    8   12
2016-02-13    05:00      33     0      9    | 336    7   12

RENO TAF FORECAST:
KRNO 131127Z 1312/1412 VRB04KT P6SM SCT150 BKN200
     FM131500 VRB02KT P6SM FEW200

CARSON CITY TAF FORECAST:
KCXP 131127Z 1312/1412 VRB04KT P6SM SCT150 BKN200
     FM131500 VRB02KT P6SM FEW200

OUTLOOK FOR THE RENO-CARSON CITY-MINDEN AREA:
.SUNDAY...PARTLY CLOUDY. HIGHS 58 TO 63. LIGHT WINDS.

SUNRISE AND SUNSET
FEBRUARY 13 2016......SUNRISE   654 AM PST   SUNSET   533 PM PST
FEBRUARY 14 2016......SUNRISE   653 AM PST   SUNSET   534 PM PST



USA.gov is the U.S. government's official web portal to all federal, state and local government web resources and services.